createdAt,value
2023-01-30T00:00:26.825Z,6.18
2023-01-30T00:04:28.258Z,7.38
2023-01-30T00:08:29.743Z,4.38
2023-01-30T00:12:31.211Z,6.80
2023-01-30T00:16:32.857Z,4.78
2023-01-30T00:20:34.594Z,5.75
2023-01-30T00:24:36.048Z,8.95
2023-01-30T00:28:38.146Z,6.25
2023-01-30T00:32:39.640Z,5.55
2023-01-30T00:36:41.153Z,5.38
2023-01-30T00:40:43.709Z,8.18
2023-01-30T00:45:03.600Z,6.93
2023-01-30T00:49:05.047Z,7.50
2023-01-30T00:53:06.493Z,8.55
2023-01-30T00:57:08.138Z,4.85
2023-01-30T01:01:09.619Z,7.25
2023-01-30T01:05:11.078Z,4.97
2023-01-30T01:09:12.633Z,8.20
2023-01-30T01:13:14.109Z,6.03
2023-01-30T01:17:15.548Z,8.43
2023-01-30T01:21:19.314Z,8.02
2023-01-30T01:25:21.711Z,10.20
2023-01-30T01:29:23.228Z,7.10
2023-01-30T01:33:29.222Z,6.25
2023-01-30T01:37:30.851Z,6.22
2023-01-30T01:41:32.313Z,6.63
2023-01-30T01:45:33.925Z,6.53
2023-01-30T01:49:37.067Z,6.55
2023-01-30T01:53:47.232Z,7.32
2023-01-30T01:57:54.855Z,6.78
2023-01-30T02:02:00.931Z,8.68
2023-01-30T02:06:03.659Z,8.75
2023-01-30T02:10:08.492Z,7.90
2023-01-30T02:14:12.175Z,8.23
2023-01-30T02:18:15.776Z,9.02
2023-01-30T02:22:54.719Z,7.13
2023-01-30T02:27:13.550Z,6.60
2023-01-30T02:31:25.597Z,8.20
2023-01-30T02:35:35.905Z,7.90
2023-01-30T02:40:10.915Z,6.35
2023-01-30T02:44:24.296Z,8.00
2023-01-30T02:48:36.461Z,8.30
2023-01-30T02:52:39.850Z,9.82
2023-01-30T02:56:48.632Z,9.20
2023-01-30T03:01:20.632Z,9.07
2023-01-30T03:05:43.146Z,10.85
2023-01-30T03:09:59.755Z,12.35
2023-01-30T03:14:38.263Z,8.50
2023-01-30T03:18:43.611Z,5.78
2023-01-30T03:22:45.074Z,9.75
2023-01-30T03:26:59.137Z,6.40
2023-01-30T03:31:00.727Z,8.35
2023-01-30T03:35:02.230Z,10.77
2023-01-30T03:39:03.988Z,7.47
2023-01-30T03:43:05.442Z,7.68
2023-01-30T03:47:06.891Z,7.75
2023-01-30T03:51:08.347Z,8.38
2023-01-30T03:55:10.775Z,5.63
2023-01-30T03:59:12.492Z,7.85
2023-01-30T04:03:15.660Z,8.68
2023-01-30T04:07:17.699Z,10.70
2023-01-30T04:11:19.252Z,8.90
2023-01-30T04:15:20.885Z,6.65
2023-01-30T04:19:22.414Z,7.43
2023-01-30T04:23:23.893Z,9.18
2023-01-30T04:27:25.330Z,8.25
2023-01-30T04:31:26.835Z,10.18
2023-01-30T04:35:28.251Z,9.60
2023-01-30T04:39:29.697Z,7.40
2023-01-30T04:43:32.309Z,7.53
2023-01-30T04:47:33.756Z,6.90
2023-01-30T04:51:35.233Z,9.68
2023-01-30T04:55:37.467Z,6.82
2023-01-30T04:59:38.928Z,5.13
2023-01-30T05:03:40.531Z,8.75
2023-01-30T05:07:41.988Z,7.25
2023-01-30T05:11:43.504Z,7.68
2023-01-30T05:15:45.208Z,4.60
2023-01-30T05:19:46.671Z,9.23
2023-01-30T05:23:48.435Z,10.52
2023-01-30T05:27:49.872Z,9.30
2023-01-30T05:31:51.359Z,9.10
2023-01-30T05:35:52.893Z,10.43
2023-01-30T05:39:54.329Z,9.43
2023-01-30T05:43:55.743Z,10.77
2023-01-30T05:48:01.272Z,10.13
2023-01-30T05:52:03.240Z,7.97
2023-01-30T05:56:05.618Z,10.48
2023-01-30T06:00:07.783Z,11.75
2023-01-30T06:04:09.237Z,8.18
2023-01-30T06:08:12.572Z,8.88
2023-01-30T06:12:14.044Z,9.82
2023-01-30T06:16:18.026Z,10.43
2023-01-30T06:20:19.843Z,8.70
2023-01-30T06:24:21.282Z,9.07
2023-01-30T06:28:24.144Z,14.95
2023-01-30T06:32:25.552Z,12.73
2023-01-30T06:36:27.013Z,11.93
2023-01-30T06:40:28.483Z,7.85
2023-01-30T06:44:30.063Z,9.63
2023-01-30T06:48:31.569Z,9.60
2023-01-30T06:52:32.991Z,12.27
2023-01-30T06:56:34.518Z,10.98
2023-01-30T07:00:39.577Z,9.65
2023-01-30T07:04:41.563Z,8.88
2023-01-30T07:08:44.333Z,11.77
2023-01-30T07:12:46.530Z,10.15
2023-01-30T07:16:47.944Z,11.63
2023-01-30T07:20:49.938Z,11.02
2023-01-30T07:24:51.439Z,9.20
2023-01-30T07:28:52.889Z,8.13
2023-01-30T07:32:57.774Z,8.10
2023-01-30T07:36:59.704Z,9.88
2023-01-30T07:41:01.181Z,10.52
2023-01-30T07:45:02.624Z,8.23
2023-01-30T07:49:05.198Z,8.85
2023-01-30T07:53:09.063Z,9.60
2023-01-30T07:57:10.528Z,11.10
2023-01-30T08:01:12.076Z,7.28
2023-01-30T08:05:13.580Z,8.80
2023-01-30T08:09:15.060Z,10.25
2023-01-30T08:13:16.814Z,8.68
2023-01-30T08:17:18.278Z,4.95
2023-01-30T08:21:19.759Z,8.30
2023-01-30T08:25:22.186Z,7.57
2023-01-30T08:29:23.764Z,7.15
2023-01-30T08:33:25.484Z,11.30
2023-01-30T08:37:26.998Z,6.10
2023-01-30T08:41:28.422Z,9.80
2023-01-30T08:45:30.196Z,7.38
2023-01-30T08:49:31.627Z,6.60
2023-01-30T08:53:33.393Z,9.50
2023-01-30T08:57:35.320Z,7.90
2023-01-30T09:01:38.241Z,6.90
2023-01-30T09:05:39.675Z,2.30
2023-01-30T09:09:41.142Z,2.97
2023-01-30T09:13:43.586Z,2.03
2023-01-30T09:17:45.197Z,2.40
2023-01-30T09:21:48.499Z,1.85
2023-01-30T09:25:49.921Z,2.58
2023-01-30T09:29:51.483Z,2.67
2023-01-30T09:33:52.962Z,1.33
2023-01-30T09:37:54.459Z,2.05
2023-01-30T09:42:17.848Z,2.58
2023-01-30T09:46:40.558Z,2.22
2023-01-30T09:50:55.377Z,1.63
2023-01-30T09:55:19.482Z,1.58
2023-01-30T09:59:30.434Z,2.22
2023-01-30T10:03:42.312Z,1.40
2023-01-30T10:08:06.761Z,1.92
2023-01-30T10:12:31.679Z,0.90
2023-01-30T10:16:45.626Z,1.50
2023-01-30T10:21:03.195Z,1.23
2023-01-30T10:25:18.620Z,0.82
2023-01-30T10:29:27.078Z,0.82
2023-01-30T10:33:50.520Z,1.23
2023-01-30T10:38:21.732Z,1.85
2023-01-30T10:42:44.510Z,1.13
2023-01-30T10:47:17.151Z,1.27
2023-01-30T10:51:28.222Z,1.63
2023-01-30T10:55:38.144Z,1.77
2023-01-30T10:59:59.468Z,2.40
2023-01-30T11:04:12.792Z,1.95
2023-01-30T11:08:34.882Z,1.30
2023-01-30T11:12:36.304Z,1.60
2023-01-30T11:16:45.069Z,1.20
2023-01-30T11:21:01.951Z,2.22
2023-01-30T11:25:24.127Z,1.75
2023-01-30T11:29:31.704Z,2.05
2023-01-30T11:33:36.392Z,0.98
2023-01-30T11:37:40.503Z,2.08
2023-01-30T11:42:04.952Z,1.67
2023-01-30T11:46:09.254Z,1.40
2023-01-30T11:50:20.894Z,1.38
2023-01-30T11:54:35.581Z,1.33
2023-01-30T11:58:40.726Z,1.67
2023-01-30T12:02:45.056Z,2.30
2023-01-30T12:06:46.573Z,2.15
2023-01-30T12:11:01.396Z,1.60
2023-01-30T12:15:23.285Z,2.10
2023-01-30T12:20:14.303Z,2.42
2023-01-30T12:24:40.217Z,3.15
2023-01-30T12:28:41.615Z,1.73
2023-01-30T12:32:44.316Z,2.08
2023-01-30T12:36:57.414Z,1.80
2023-01-30T12:41:40.639Z,2.17
2023-01-30T12:46:00.834Z,1.50
2023-01-30T12:50:21.140Z,1.35
2023-01-30T12:59:48.954Z,1.40
2023-01-30T13:04:56.555Z,1.85
2023-01-30T13:09:06.108Z,1.10
2023-01-30T13:13:18.236Z,1.92
2023-01-30T13:17:59.932Z,1.50
2023-01-30T13:22:26.061Z,1.77
2023-01-30T13:26:34.226Z,1.20
2023-01-30T13:30:36.159Z,1.10
2023-01-30T13:34:47.836Z,1.10
2023-01-30T13:39:10.525Z,1.55
2023-01-30T13:43:30.282Z,3.05
2023-01-30T13:47:56.662Z,2.65
2023-01-30T13:52:08.904Z,2.05
2023-01-30T13:56:40.168Z,1.95
2023-01-30T14:00:53.387Z,1.30
2023-01-30T14:04:56.469Z,1.58
2023-01-30T14:09:01.310Z,2.20
2023-01-30T14:13:06.202Z,1.25
2023-01-30T14:17:17.545Z,0.90
2023-01-30T14:21:24.985Z,1.30
2023-01-30T14:25:29.258Z,0.60
2023-01-30T14:29:42.430Z,0.80
2023-01-30T14:33:51.613Z,0.60
2023-01-30T14:38:13.301Z,1.20
2023-01-30T14:42:32.965Z,0.85
2023-01-30T14:46:42.224Z,0.95
2023-01-30T14:51:17.849Z,0.80
2023-01-30T14:55:23.460Z,0.80
2023-01-30T15:00:02.661Z,1.15
2023-01-30T15:04:16.261Z,1.27
2023-01-30T15:08:26.430Z,0.80
2023-01-30T15:13:02.636Z,0.75
2023-01-30T15:17:30.113Z,1.08
2023-01-30T15:22:04.211Z,1.48
2023-01-30T15:26:30.659Z,0.82
2023-01-30T15:30:43.086Z,1.13
2023-01-30T15:34:52.272Z,1.48
2023-01-30T15:39:16.450Z,2.45
2023-01-30T15:43:23.683Z,2.15
2023-01-30T15:47:52.393Z,1.38
2023-01-30T15:51:54.006Z,1.25
2023-01-30T15:55:55.681Z,1.17
2023-01-30T15:59:58.482Z,1.00
2023-01-30T16:04:00.368Z,1.50
2023-01-30T16:08:17.904Z,1.20
2023-01-30T16:12:27.459Z,1.88
2023-01-30T16:16:29.944Z,1.00
2023-01-30T16:20:43.725Z,1.20
2023-01-30T16:24:54.515Z,1.33
2023-01-30T16:29:18.127Z,1.60
2023-01-30T16:33:19.535Z,2.40
2023-01-30T16:37:20.945Z,0.90
2023-01-30T16:41:34.367Z,2.03
2023-01-30T16:45:35.818Z,1.75
2023-01-30T16:49:37.219Z,2.05
2023-01-30T16:54:00.530Z,1.58
2023-01-30T16:58:04.477Z,1.77
2023-01-30T17:02:07.270Z,1.40
2023-01-30T17:06:19.171Z,2.25
2023-01-30T17:10:39.222Z,1.35
2023-01-30T17:14:40.935Z,1.33
2023-01-30T17:18:42.437Z,1.85
2023-01-30T17:22:48.449Z,1.33
2023-01-30T17:26:53.511Z,1.98
2023-01-30T17:30:55.258Z,2.15
2023-01-30T17:34:58.751Z,1.88
2023-01-30T17:39:00.313Z,1.45
2023-01-30T17:43:02.109Z,1.25
2023-01-30T17:47:03.683Z,2.20
2023-01-30T17:51:05.409Z,2.30
2023-01-30T17:55:07.766Z,1.35
2023-01-30T17:59:14.770Z,2.45
2023-01-30T18:03:16.325Z,2.92
2023-01-30T18:07:17.970Z,2.53
2023-01-30T18:11:20.996Z,1.35
2023-01-30T18:15:23.043Z,2.67
2023-01-30T18:19:24.758Z,2.78
2023-01-30T18:23:26.415Z,3.25
2023-01-30T18:27:28.089Z,1.60
2023-01-30T18:31:30.753Z,2.40
2023-01-30T18:35:32.340Z,3.88
2023-01-30T18:39:34.867Z,4.53
2023-01-30T18:43:36.570Z,2.35
2023-01-30T18:47:38.236Z,2.30
2023-01-30T18:51:40.461Z,3.30
2023-01-30T18:55:49.441Z,3.08
2023-01-30T18:59:52.010Z,3.10
2023-01-30T19:03:58.317Z,2.35
2023-01-30T19:07:59.748Z,3.67
2023-01-30T19:12:19.855Z,2.63
2023-01-30T19:16:23.723Z,2.70
2023-01-30T19:20:26.302Z,2.42
2023-01-30T19:24:28.124Z,2.65
2023-01-30T19:28:31.289Z,2.58
2023-01-30T19:32:32.956Z,2.67
2023-01-30T19:36:36.209Z,3.33
2023-01-30T19:40:45.087Z,3.10
2023-01-30T19:44:46.679Z,2.63
2023-01-30T19:48:49.407Z,3.40
2023-01-30T19:52:54.048Z,2.17
2023-01-30T19:56:55.651Z,3.85
2023-01-30T20:01:09.788Z,3.55
2023-01-30T20:05:11.570Z,3.70
2023-01-30T20:09:16.046Z,2.97
2023-01-30T20:13:17.520Z,2.80
2023-01-30T20:17:18.964Z,3.35
2023-01-30T20:21:21.537Z,1.77
2023-01-30T20:25:23.078Z,3.42
2023-01-30T20:29:24.492Z,2.58
2023-01-30T20:33:26.771Z,1.38
2023-01-30T20:37:28.602Z,1.95
2023-01-30T20:41:32.430Z,1.88
2023-01-30T20:45:33.924Z,1.55
2023-01-30T20:49:35.389Z,2.05
2023-01-30T20:53:45.671Z,1.92
2023-01-30T20:57:47.127Z,2.22
2023-01-30T21:01:48.885Z,2.50
2023-01-30T21:06:00.119Z,2.78
2023-01-30T21:10:01.563Z,2.50
2023-01-30T21:14:04.181Z,2.03
2023-01-30T21:18:05.873Z,1.42
2023-01-30T21:22:10.477Z,2.30
2023-01-30T21:26:13.246Z,1.30
2023-01-30T21:30:14.792Z,1.02
2023-01-30T21:34:16.470Z,2.95
2023-01-30T21:38:36.771Z,1.13
2023-01-30T21:42:56.677Z,1.92
2023-01-30T21:46:58.406Z,2.30
2023-01-30T21:51:09.768Z,1.90
2023-01-30T21:55:11.226Z,1.88
2023-01-30T21:59:13.392Z,1.52
2023-01-30T22:03:14.826Z,1.80
2023-01-30T22:07:16.316Z,2.53
2023-01-30T22:11:20.287Z,1.98
2023-01-30T22:15:22.628Z,2.70
2023-01-30T22:19:24.074Z,2.47
2023-01-30T22:23:30.859Z,2.20
2023-01-30T22:27:32.446Z,1.83
2023-01-30T22:31:36.360Z,2.42
2023-01-30T22:35:38.361Z,1.90
2023-01-30T22:39:40.867Z,2.13
2023-01-30T22:43:55.644Z,1.40
2023-01-30T22:47:57.137Z,2.80
2023-01-30T22:51:58.616Z,2.58
2023-01-30T22:56:02.185Z,1.60
2023-01-30T23:00:04.979Z,5.53
2023-01-30T23:04:06.681Z,1.40
2023-01-30T23:08:08.280Z,2.15
2023-01-30T23:12:28.144Z,5.05
2023-01-30T23:16:32.777Z,2.90
2023-01-30T23:20:34.221Z,2.25
2023-01-30T23:24:35.796Z,3.97
2023-01-30T23:28:38.315Z,2.63
2023-01-30T23:32:40.342Z,2.35
2023-01-30T23:36:42.307Z,1.85
2023-01-30T23:40:44.302Z,4.10
2023-01-30T23:44:45.713Z,2.60
2023-01-30T23:48:50.208Z,2.25
2023-01-30T23:52:51.640Z,1.85
2023-01-30T23:56:54.180Z,2.33
